sensor_id;sensor_type;location;lat;lon;timestamp;P1;durP1;ratioP1;P2;durP2;ratioP2
71150;SDS011;59071;42.138;24.768;2022-10-31T00:00:27;7.57;;;2.67;;
71150;SDS011;59071;42.138;24.768;2022-10-31T00:02:52;8.70;;;2.70;;
71150;SDS011;59071;42.138;24.768;2022-10-31T00:05:18;7.22;;;2.88;;
71150;SDS011;59071;42.138;24.768;2022-10-31T00:07:43;5.43;;;2.60;;
71150;SDS011;59071;42.138;24.768;2022-10-31T00:10:09;8.73;;;2.88;;
71150;SDS011;59071;42.138;24.768;2022-10-31T00:12:34;4.78;;;2.63;;
71150;SDS011;59071;42.138;24.768;2022-10-31T00:15:00;5.85;;;2.50;;
71150;SDS011;59071;42.138;24.768;2022-10-31T00:17:25;7.32;;;2.40;;
71150;SDS011;59071;42.138;24.768;2022-10-31T00:19:50;5.18;;;2.75;;
71150;SDS011;59071;42.138;24.768;2022-10-31T00:22:16;11.25;;;3.15;;
71150;SDS011;59071;42.138;24.768;2022-10-31T00:24:41;5.20;;;2.80;;
71150;SDS011;59071;42.138;24.768;2022-10-31T00:27:07;5.78;;;2.63;;
71150;SDS011;59071;42.138;24.768;2022-10-31T00:29:32;5.72;;;2.55;;
71150;SDS011;59071;42.138;24.768;2022-10-31T00:31:57;6.10;;;2.70;;
71150;SDS011;59071;42.138;24.768;2022-10-31T00:34:23;7.03;;;3.10;;
71150;SDS011;59071;42.138;24.768;2022-10-31T00:36:48;9.77;;;2.83;;
71150;SDS011;59071;42.138;24.768;2022-10-31T00:39:14;5.35;;;2.63;;
71150;SDS011;59071;42.138;24.768;2022-10-31T00:41:39;6.55;;;2.80;;
71150;SDS011;59071;42.138;24.768;2022-10-31T00:44:04;8.65;;;2.92;;
71150;SDS011;59071;42.138;24.768;2022-10-31T00:46:30;6.07;;;2.90;;
71150;SDS011;59071;42.138;24.768;2022-10-31T00:48:55;7.72;;;2.92;;
71150;SDS011;59071;42.138;24.768;2022-10-31T00:51:21;4.82;;;2.50;;
71150;SDS011;59071;42.138;24.768;2022-10-31T00:53:46;5.93;;;2.60;;
71150;SDS011;59071;42.138;24.768;2022-10-31T00:56:11;5.30;;;2.90;;
71150;SDS011;59071;42.138;24.768;2022-10-31T00:58:37;7.05;;;2.65;;
71150;SDS011;59071;42.138;24.768;2022-10-31T01:01:02;4.93;;;2.45;;
71150;SDS011;59071;42.138;24.768;2022-10-31T01:03:31;6.63;;;2.70;;
71150;SDS011;59071;42.138;24.768;2022-10-31T01:05:58;7.15;;;3.45;;
71150;SDS011;59071;42.138;24.768;2022-10-31T01:08:24;7.22;;;2.55;;
71150;SDS011;59071;42.138;24.768;2022-10-31T01:11:06;5.80;;;2.63;;
71150;SDS011;59071;42.138;24.768;2022-10-31T01:13:43;6.45;;;2.60;;
71150;SDS011;59071;42.138;24.768;2022-10-31T01:16:10;6.22;;;2.78;;
71150;SDS011;59071;42.138;24.768;2022-10-31T01:18:37;5.68;;;2.45;;
71150;SDS011;59071;42.138;24.768;2022-10-31T01:21:04;4.75;;;2.70;;
71150;SDS011;59071;42.138;24.768;2022-10-31T01:23:32;10.20;;;2.88;;
71150;SDS011;59071;42.138;24.768;2022-10-31T01:28:31;6.72;;;2.70;;
71150;SDS011;59071;42.138;24.768;2022-10-31T01:30:59;5.22;;;2.65;;
71150;SDS011;59071;42.138;24.768;2022-10-31T01:35:51;7.38;;;2.50;;
71150;SDS011;59071;42.138;24.768;2022-10-31T01:38:16;8.07;;;2.70;;
71150;SDS011;59071;42.138;24.768;2022-10-31T01:40:42;8.20;;;2.95;;
71150;SDS011;59071;42.138;24.768;2022-10-31T01:43:10;5.25;;;2.63;;
71150;SDS011;59071;42.138;24.768;2022-10-31T01:45:38;6.43;;;2.80;;
71150;SDS011;59071;42.138;24.768;2022-10-31T01:48:03;6.50;;;2.65;;
71150;SDS011;59071;42.138;24.768;2022-10-31T01:50:33;5.10;;;2.47;;
71150;SDS011;59071;42.138;24.768;2022-10-31T01:53:02;4.35;;;2.53;;
71150;SDS011;59071;42.138;24.768;2022-10-31T01:55:32;5.32;;;2.60;;
71150;SDS011;59071;42.138;24.768;2022-10-31T01:58:04;9.52;;;2.65;;
71150;SDS011;59071;42.138;24.768;2022-10-31T02:00:38;8.35;;;2.55;;
71150;SDS011;59071;42.138;24.768;2022-10-31T02:03:06;7.05;;;2.60;;
71150;SDS011;59071;42.138;24.768;2022-10-31T02:05:31;6.95;;;2.58;;
71150;SDS011;59071;42.138;24.768;2022-10-31T02:08:05;6.82;;;2.70;;
71150;SDS011;59071;42.138;24.768;2022-10-31T02:10:35;4.80;;;2.70;;
71150;SDS011;59071;42.138;24.768;2022-10-31T02:13:02;7.65;;;2.70;;
71150;SDS011;59071;42.138;24.768;2022-10-31T02:15:30;10.38;;;2.85;;
71150;SDS011;59071;42.138;24.768;2022-10-31T02:17:56;5.32;;;2.60;;
71150;SDS011;59071;42.138;24.768;2022-10-31T02:20:23;12.20;;;2.53;;
71150;SDS011;59071;42.138;24.768;2022-10-31T02:23:02;9.38;;;2.90;;
71150;SDS011;59071;42.138;24.768;2022-10-31T02:31:00;8.02;;;2.95;;
71150;SDS011;59071;42.138;24.768;2022-10-31T02:33:44;8.40;;;2.40;;
71150;SDS011;59071;42.138;24.768;2022-10-31T02:41:49;5.32;;;2.40;;
71150;SDS011;59071;42.138;24.768;2022-10-31T02:44:25;9.73;;;2.47;;
71150;SDS011;59071;42.138;24.768;2022-10-31T02:47:03;7.03;;;2.53;;
71150;SDS011;59071;42.138;24.768;2022-10-31T02:49:36;7.85;;;2.85;;
71150;SDS011;59071;42.138;24.768;2022-10-31T02:52:18;18.48;;;2.75;;
71150;SDS011;59071;42.138;24.768;2022-10-31T02:54:51;17.05;;;3.03;;
71150;SDS011;59071;42.138;24.768;2022-10-31T02:57:35;9.63;;;2.90;;
71150;SDS011;59071;42.138;24.768;2022-10-31T03:00:06;6.90;;;2.50;;
71150;SDS011;59071;42.138;24.768;2022-10-31T03:11:07;8.57;;;2.55;;
71150;SDS011;59071;42.138;24.768;2022-10-31T03:16:13;9.18;;;2.85;;
71150;SDS011;59071;42.138;24.768;2022-10-31T03:18:52;6.95;;;2.45;;
71150;SDS011;59071;42.138;24.768;2022-10-31T03:21:30;4.38;;;2.35;;
71150;SDS011;59071;42.138;24.768;2022-10-31T03:24:03;6.32;;;2.17;;
71150;SDS011;59071;42.138;24.768;2022-10-31T03:26:31;5.13;;;2.42;;
71150;SDS011;59071;42.138;24.768;2022-10-31T03:29:02;6.85;;;2.50;;
71150;SDS011;59071;42.138;24.768;2022-10-31T03:31:31;5.85;;;2.53;;
71150;SDS011;59071;42.138;24.768;2022-10-31T03:34:00;9.68;;;2.60;;
71150;SDS011;59071;42.138;24.768;2022-10-31T03:36:28;6.75;;;2.40;;
71150;SDS011;59071;42.138;24.768;2022-10-31T03:38:57;7.43;;;2.65;;
71150;SDS011;59071;42.138;24.768;2022-10-31T03:41:27;5.28;;;2.58;;
71150;SDS011;59071;42.138;24.768;2022-10-31T03:44:01;6.15;;;2.22;;
71150;SDS011;59071;42.138;24.768;2022-10-31T03:46:33;5.45;;;2.20;;
71150;SDS011;59071;42.138;24.768;2022-10-31T03:48:59;5.38;;;2.67;;
71150;SDS011;59071;42.138;24.768;2022-10-31T03:54:13;7.90;;;2.47;;
71150;SDS011;59071;42.138;24.768;2022-10-31T03:56:46;4.03;;;2.60;;
71150;SDS011;59071;42.138;24.768;2022-10-31T03:59:53;7.32;;;2.38;;
71150;SDS011;59071;42.138;24.768;2022-10-31T04:02:14;9.02;;;2.83;;
71150;SDS011;59071;42.138;24.768;2022-10-31T04:04:43;9.35;;;2.60;;
71150;SDS011;59071;42.138;24.768;2022-10-31T04:07:10;8.55;;;4.35;;
71150;SDS011;59071;42.138;24.768;2022-10-31T04:09:38;5.85;;;3.03;;
71150;SDS011;59071;42.138;24.768;2022-10-31T04:12:08;8.07;;;3.22;;
71150;SDS011;59071;42.138;24.768;2022-10-31T04:14:37;4.57;;;2.70;;
71150;SDS011;59071;42.138;24.768;2022-10-31T04:17:05;16.50;;;2.90;;
71150;SDS011;59071;42.138;24.768;2022-10-31T04:19:34;4.88;;;2.50;;
71150;SDS011;59071;42.138;24.768;2022-10-31T04:22:00;7.38;;;2.80;;
71150;SDS011;59071;42.138;24.768;2022-10-31T04:24:26;7.80;;;2.67;;
71150;SDS011;59071;42.138;24.768;2022-10-31T04:26:51;9.13;;;2.85;;
71150;SDS011;59071;42.138;24.768;2022-10-31T04:29:16;7.07;;;3.10;;
71150;SDS011;59071;42.138;24.768;2022-10-31T04:31:42;5.97;;;2.63;;
71150;SDS011;59071;42.138;24.768;2022-10-31T04:34:07;8.07;;;2.53;;
71150;SDS011;59071;42.138;24.768;2022-10-31T04:36:33;9.07;;;3.08;;
71150;SDS011;59071;42.138;24.768;2022-10-31T04:38:58;11.98;;;4.97;;
71150;SDS011;59071;42.138;24.768;2022-10-31T04:41:23;15.93;;;10.10;;
71150;SDS011;59071;42.138;24.768;2022-10-31T04:43:49;7.57;;;3.00;;
71150;SDS011;59071;42.138;24.768;2022-10-31T04:46:14;4.78;;;2.58;;
71150;SDS011;59071;42.138;24.768;2022-10-31T04:48:40;8.02;;;2.63;;
71150;SDS011;59071;42.138;24.768;2022-10-31T04:51:05;11.82;;;2.90;;
71150;SDS011;59071;42.138;24.768;2022-10-31T04:53:31;7.60;;;2.72;;
71150;SDS011;59071;42.138;24.768;2022-10-31T04:55:57;8.05;;;2.70;;
71150;SDS011;59071;42.138;24.768;2022-10-31T04:58:24;6.93;;;2.85;;
71150;SDS011;59071;42.138;24.768;2022-10-31T05:00:53;8.90;;;2.80;;
71150;SDS011;59071;42.138;24.768;2022-10-31T05:03:19;6.30;;;2.60;;
71150;SDS011;59071;42.138;24.768;2022-10-31T05:05:45;5.70;;;2.80;;
71150;SDS011;59071;42.138;24.768;2022-10-31T05:08:10;10.10;;;2.95;;
71150;SDS011;59071;42.138;24.768;2022-10-31T05:10:36;6.65;;;2.70;;
71150;SDS011;59071;42.138;24.768;2022-10-31T05:13:02;6.32;;;3.03;;
71150;SDS011;59071;42.138;24.768;2022-10-31T05:15:29;9.02;;;2.95;;
71150;SDS011;59071;42.138;24.768;2022-10-31T05:17:55;8.23;;;2.90;;
71150;SDS011;59071;42.138;24.768;2022-10-31T05:20:22;8.93;;;3.05;;
71150;SDS011;59071;42.138;24.768;2022-10-31T05:22:50;8.00;;;2.90;;
71150;SDS011;59071;42.138;24.768;2022-10-31T05:25:17;6.70;;;2.72;;
71150;SDS011;59071;42.138;24.768;2022-10-31T05:27:45;8.13;;;2.83;;
71150;SDS011;59071;42.138;24.768;2022-10-31T05:30:13;8.27;;;3.03;;
71150;SDS011;59071;42.138;24.768;2022-10-31T05:32:41;9.32;;;3.05;;
71150;SDS011;59071;42.138;24.768;2022-10-31T05:35:12;18.15;;;10.52;;
71150;SDS011;59071;42.138;24.768;2022-10-31T05:37:39;8.05;;;3.10;;
71150;SDS011;59071;42.138;24.768;2022-10-31T05:40:05;12.07;;;3.13;;
71150;SDS011;59071;42.138;24.768;2022-10-31T05:42:33;8.02;;;3.20;;
71150;SDS011;59071;42.138;24.768;2022-10-31T05:44:58;7.55;;;3.08;;
71150;SDS011;59071;42.138;24.768;2022-10-31T05:47:24;10.00;;;3.50;;
71150;SDS011;59071;42.138;24.768;2022-10-31T05:49:50;9.65;;;3.08;;
71150;SDS011;59071;42.138;24.768;2022-10-31T05:52:15;8.05;;;2.80;;
71150;SDS011;59071;42.138;24.768;2022-10-31T05:54:41;13.63;;;5.03;;
71150;SDS011;59071;42.138;24.768;2022-10-31T05:57:06;17.27;;;5.90;;
71150;SDS011;59071;42.138;24.768;2022-10-31T05:59:32;9.15;;;3.00;;
71150;SDS011;59071;42.138;24.768;2022-10-31T06:01:57;9.88;;;2.83;;
71150;SDS011;59071;42.138;24.768;2022-10-31T06:04:23;12.25;;;3.08;;
71150;SDS011;59071;42.138;24.768;2022-10-31T06:06:48;8.63;;;3.03;;
71150;SDS011;59071;42.138;24.768;2022-10-31T06:09:13;5.60;;;2.70;;
71150;SDS011;59071;42.138;24.768;2022-10-31T06:11:39;7.15;;;2.90;;
71150;SDS011;59071;42.138;24.768;2022-10-31T06:14:04;7.28;;;3.22;;
71150;SDS011;59071;42.138;24.768;2022-10-31T06:16:30;8.27;;;4.28;;
71150;SDS011;59071;42.138;24.768;2022-10-31T06:18:55;11.20;;;3.88;;
71150;SDS011;59071;42.138;24.768;2022-10-31T06:21:21;8.80;;;3.00;;
71150;SDS011;59071;42.138;24.768;2022-10-31T06:23:46;5.97;;;2.97;;
71150;SDS011;59071;42.138;24.768;2022-10-31T06:26:12;13.15;;;3.50;;
71150;SDS011;59071;42.138;24.768;2022-10-31T06:28:37;13.70;;;3.35;;
71150;SDS011;59071;42.138;24.768;2022-10-31T06:31:03;8.93;;;3.13;;
71150;SDS011;59071;42.138;24.768;2022-10-31T06:33:28;7.15;;;2.90;;
71150;SDS011;59071;42.138;24.768;2022-10-31T06:35:53;8.80;;;3.20;;
71150;SDS011;59071;42.138;24.768;2022-10-31T06:38:19;9.93;;;3.30;;
71150;SDS011;59071;42.138;24.768;2022-10-31T06:40:44;11.05;;;3.35;;
71150;SDS011;59071;42.138;24.768;2022-10-31T06:43:10;11.27;;;2.83;;
71150;SDS011;59071;42.138;24.768;2022-10-31T06:45:36;10.57;;;2.80;;
71150;SDS011;59071;42.138;24.768;2022-10-31T06:48:02;9.60;;;3.00;;
71150;SDS011;59071;42.138;24.768;2022-10-31T06:50:28;7.70;;;2.60;;
71150;SDS011;59071;42.138;24.768;2022-10-31T06:52:54;9.45;;;2.90;;
71150;SDS011;59071;42.138;24.768;2022-10-31T06:55:21;11.75;;;3.05;;
71150;SDS011;59071;42.138;24.768;2022-10-31T06:57:54;7.10;;;2.97;;
71150;SDS011;59071;42.138;24.768;2022-10-31T07:00:21;6.55;;;2.70;;
71150;SDS011;59071;42.138;24.768;2022-10-31T07:03:00;6.43;;;2.97;;
71150;SDS011;59071;42.138;24.768;2022-10-31T07:05:26;11.50;;;3.00;;
71150;SDS011;59071;42.138;24.768;2022-10-31T07:07:54;9.02;;;2.95;;
71150;SDS011;59071;42.138;24.768;2022-10-31T07:10:23;11.90;;;3.08;;
71150;SDS011;59071;42.138;24.768;2022-10-31T07:13:02;9.75;;;2.85;;
71150;SDS011;59071;42.138;24.768;2022-10-31T07:15:29;9.25;;;2.78;;
71150;SDS011;59071;42.138;24.768;2022-10-31T07:18:01;5.10;;;2.60;;
71150;SDS011;59071;42.138;24.768;2022-10-31T07:20:28;8.98;;;2.50;;
71150;SDS011;59071;42.138;24.768;2022-10-31T07:22:53;9.32;;;2.83;;
71150;SDS011;59071;42.138;24.768;2022-10-31T07:25:19;5.18;;;2.70;;
71150;SDS011;59071;42.138;24.768;2022-10-31T07:27:45;6.72;;;2.50;;
71150;SDS011;59071;42.138;24.768;2022-10-31T07:30:11;12.38;;;3.47;;
71150;SDS011;59071;42.138;24.768;2022-10-31T07:32:41;11.38;;;2.88;;
71150;SDS011;59071;42.138;24.768;2022-10-31T07:35:08;10.27;;;2.90;;
71150;SDS011;59071;42.138;24.768;2022-10-31T07:37:35;7.75;;;2.88;;
71150;SDS011;59071;42.138;24.768;2022-10-31T07:40:02;10.95;;;2.70;;
71150;SDS011;59071;42.138;24.768;2022-10-31T07:42:28;9.50;;;2.60;;
71150;SDS011;59071;42.138;24.768;2022-10-31T07:44:54;5.30;;;2.58;;
71150;SDS011;59071;42.138;24.768;2022-10-31T07:47:19;10.32;;;2.63;;
71150;SDS011;59071;42.138;24.768;2022-10-31T07:49:45;6.13;;;2.67;;
71150;SDS011;59071;42.138;24.768;2022-10-31T07:52:10;9.48;;;2.75;;
71150;SDS011;59071;42.138;24.768;2022-10-31T07:54:36;9.45;;;2.83;;
71150;SDS011;59071;42.138;24.768;2022-10-31T07:57:01;8.80;;;2.90;;
71150;SDS011;59071;42.138;24.768;2022-10-31T07:59:27;11.55;;;3.22;;
71150;SDS011;59071;42.138;24.768;2022-10-31T08:01:52;8.70;;;3.00;;
71150;SDS011;59071;42.138;24.768;2022-10-31T08:04:18;6.65;;;2.83;;
71150;SDS011;59071;42.138;24.768;2022-10-31T08:06:43;5.90;;;2.95;;
71150;SDS011;59071;42.138;24.768;2022-10-31T08:09:09;7.72;;;3.20;;
71150;SDS011;59071;42.138;24.768;2022-10-31T08:11:34;13.00;;;3.03;;
71150;SDS011;59071;42.138;24.768;2022-10-31T08:14:00;7.45;;;2.80;;
71150;SDS011;59071;42.138;24.768;2022-10-31T08:16:26;11.00;;;3.00;;
71150;SDS011;59071;42.138;24.768;2022-10-31T08:18:51;7.47;;;2.95;;
71150;SDS011;59071;42.138;24.768;2022-10-31T08:21:19;8.02;;;2.92;;
71150;SDS011;59071;42.138;24.768;2022-10-31T08:23:44;9.88;;;2.92;;
71150;SDS011;59071;42.138;24.768;2022-10-31T08:26:10;9.40;;;3.17;;
71150;SDS011;59071;42.138;24.768;2022-10-31T08:28:35;5.97;;;3.35;;
71150;SDS011;59071;42.138;24.768;2022-10-31T08:31:00;6.50;;;2.55;;
71150;SDS011;59071;42.138;24.768;2022-10-31T08:33:26;5.20;;;2.80;;
71150;SDS011;59071;42.138;24.768;2022-10-31T08:35:51;11.85;;;2.90;;
71150;SDS011;59071;42.138;24.768;2022-10-31T08:38:17;11.02;;;3.05;;
71150;SDS011;59071;42.138;24.768;2022-10-31T08:40:42;6.53;;;2.80;;
71150;SDS011;59071;42.138;24.768;2022-10-31T08:43:14;5.75;;;2.70;;
71150;SDS011;59071;42.138;24.768;2022-10-31T08:45:41;10.45;;;2.97;;
71150;SDS011;59071;42.138;24.768;2022-10-31T08:48:12;6.57;;;2.90;;
71150;SDS011;59071;42.138;24.768;2022-10-31T08:50:39;9.43;;;3.00;;
71150;SDS011;59071;42.138;24.768;2022-10-31T08:53:15;7.13;;;2.70;;
71150;SDS011;59071;42.138;24.768;2022-10-31T08:55:43;4.50;;;2.50;;
71150;SDS011;59071;42.138;24.768;2022-10-31T08:58:11;6.10;;;2.67;;
71150;SDS011;59071;42.138;24.768;2022-10-31T09:00:38;9.80;;;3.22;;
71150;SDS011;59071;42.138;24.768;2022-10-31T09:03:05;5.57;;;3.15;;
71150;SDS011;59071;42.138;24.768;2022-10-31T09:05:34;5.80;;;2.60;;
71150;SDS011;59071;42.138;24.768;2022-10-31T09:08:00;5.10;;;2.80;;
71150;SDS011;59071;42.138;24.768;2022-10-31T09:10:27;5.30;;;2.53;;
71150;SDS011;59071;42.138;24.768;2022-10-31T09:13:00;9.02;;;3.05;;
71150;SDS011;59071;42.138;24.768;2022-10-31T09:15:29;7.72;;;2.80;;
71150;SDS011;59071;42.138;24.768;2022-10-31T09:17:55;6.82;;;3.15;;
71150;SDS011;59071;42.138;24.768;2022-10-31T09:20:21;6.32;;;2.83;;
71150;SDS011;59071;42.138;24.768;2022-10-31T09:22:47;8.00;;;3.03;;
71150;SDS011;59071;42.138;24.768;2022-10-31T09:25:12;8.65;;;2.60;;
71150;SDS011;59071;42.138;24.768;2022-10-31T09:27:38;6.78;;;3.00;;
71150;SDS011;59071;42.138;24.768;2022-10-31T09:30:04;7.78;;;2.65;;
71150;SDS011;59071;42.138;24.768;2022-10-31T09:32:30;5.63;;;2.78;;
71150;SDS011;59071;42.138;24.768;2022-10-31T09:34:55;7.28;;;2.55;;
71150;SDS011;59071;42.138;24.768;2022-10-31T09:37:21;7.32;;;3.00;;
71150;SDS011;59071;42.138;24.768;2022-10-31T09:39:46;6.55;;;2.50;;
71150;SDS011;59071;42.138;24.768;2022-10-31T09:47:39;6.65;;;3.40;;
71150;SDS011;59071;42.138;24.768;2022-10-31T09:50:35;7.35;;;2.67;;
71150;SDS011;59071;42.138;24.768;2022-10-31T09:53:14;9.80;;;2.90;;
71150;SDS011;59071;42.138;24.768;2022-10-31T09:55:47;5.03;;;2.38;;
71150;SDS011;59071;42.138;24.768;2022-10-31T09:58:16;4.00;;;2.08;;
71150;SDS011;59071;42.138;24.768;2022-10-31T10:00:45;7.20;;;3.20;;
71150;SDS011;59071;42.138;24.768;2022-10-31T10:05:57;5.88;;;2.70;;
71150;SDS011;59071;42.138;24.768;2022-10-31T10:08:27;8.10;;;2.25;;
71150;SDS011;59071;42.138;24.768;2022-10-31T10:19:22;10.65;;;3.30;;
71150;SDS011;59071;42.138;24.768;2022-10-31T10:22:10;5.90;;;2.38;;
71150;SDS011;59071;42.138;24.768;2022-10-31T10:24:55;10.03;;;2.60;;
71150;SDS011;59071;42.138;24.768;2022-10-31T10:30:11;7.57;;;2.25;;
71150;SDS011;59071;42.138;24.768;2022-10-31T10:32:53;7.10;;;2.30;;
71150;SDS011;59071;42.138;24.768;2022-10-31T10:35:23;5.50;;;2.20;;
71150;SDS011;59071;42.138;24.768;2022-10-31T10:37:55;9.63;;;2.50;;
71150;SDS011;59071;42.138;24.768;2022-10-31T10:40:26;7.00;;;2.80;;
71150;SDS011;59071;42.138;24.768;2022-10-31T10:48:44;6.32;;;2.47;;
71150;SDS011;59071;42.138;24.768;2022-10-31T10:51:20;5.00;;;2.10;;
71150;SDS011;59071;42.138;24.768;2022-10-31T10:54:07;5.22;;;2.08;;
71150;SDS011;59071;42.138;24.768;2022-10-31T10:59:23;7.10;;;2.20;;
71150;SDS011;59071;42.138;24.768;2022-10-31T11:01:49;5.63;;;2.00;;
71150;SDS011;59071;42.138;24.768;2022-10-31T11:04:35;6.57;;;2.10;;
71150;SDS011;59071;42.138;24.768;2022-10-31T11:07:05;5.90;;;2.08;;
71150;SDS011;59071;42.138;24.768;2022-10-31T11:09:33;6.22;;;2.25;;
71150;SDS011;59071;42.138;24.768;2022-10-31T11:11:59;6.80;;;2.10;;
71150;SDS011;59071;42.138;24.768;2022-10-31T11:14:48;4.60;;;1.85;;
71150;SDS011;59071;42.138;24.768;2022-10-31T11:17:27;6.90;;;2.38;;
71150;SDS011;59071;42.138;24.768;2022-10-31T11:20:04;5.47;;;2.13;;
71150;SDS011;59071;42.138;24.768;2022-10-31T11:22:45;5.25;;;2.33;;
71150;SDS011;59071;42.138;24.768;2022-10-31T11:25:21;4.25;;;2.10;;
71150;SDS011;59071;42.138;24.768;2022-10-31T11:28:04;4.90;;;2.15;;
71150;SDS011;59071;42.138;24.768;2022-10-31T11:33:38;4.97;;;1.88;;
71150;SDS011;59071;42.138;24.768;2022-10-31T11:36:21;4.63;;;2.08;;
71150;SDS011;59071;42.138;24.768;2022-10-31T11:38:50;6.95;;;2.35;;
71150;SDS011;59071;42.138;24.768;2022-10-31T11:41:20;6.50;;;2.22;;
71150;SDS011;59071;42.138;24.768;2022-10-31T11:43:53;7.65;;;2.25;;
71150;SDS011;59071;42.138;24.768;2022-10-31T11:46:38;3.58;;;2.10;;
71150;SDS011;59071;42.138;24.768;2022-10-31T11:49:11;5.82;;;2.08;;
71150;SDS011;59071;42.138;24.768;2022-10-31T11:51:41;5.20;;;1.88;;
71150;SDS011;59071;42.138;24.768;2022-10-31T11:54:15;5.93;;;2.10;;
71150;SDS011;59071;42.138;24.768;2022-10-31T11:56:58;6.43;;;2.10;;
71150;SDS011;59071;42.138;24.768;2022-10-31T11:59:30;6.43;;;2.17;;
71150;SDS011;59071;42.138;24.768;2022-10-31T12:02:00;3.70;;;2.10;;
71150;SDS011;59071;42.138;24.768;2022-10-31T12:07:06;8.60;;;3.83;;
71150;SDS011;59071;42.138;24.768;2022-10-31T12:09:33;12.93;;;5.47;;
71150;SDS011;59071;42.138;24.768;2022-10-31T12:17:19;5.55;;;2.38;;
71150;SDS011;59071;42.138;24.768;2022-10-31T12:25:50;12.38;;;5.50;;
71150;SDS011;59071;42.138;24.768;2022-10-31T12:36:53;5.50;;;2.20;;
71150;SDS011;59071;42.138;24.768;2022-10-31T12:42:22;4.97;;;1.90;;
71150;SDS011;59071;42.138;24.768;2022-10-31T12:44:54;5.57;;;2.05;;
71150;SDS011;59071;42.138;24.768;2022-10-31T12:58:38;3.90;;;1.90;;
71150;SDS011;59071;42.138;24.768;2022-10-31T13:01:14;6.07;;;2.20;;
71150;SDS011;59071;42.138;24.768;2022-10-31T13:06:43;5.45;;;2.08;;
71150;SDS011;59071;42.138;24.768;2022-10-31T13:09:16;8.10;;;1.95;;
71150;SDS011;59071;42.138;24.768;2022-10-31T13:11:46;5.35;;;2.00;;
71150;SDS011;59071;42.138;24.768;2022-10-31T13:19:53;7.22;;;2.17;;
71150;SDS011;59071;42.138;24.768;2022-10-31T13:22:29;5.13;;;1.88;;
71150;SDS011;59071;42.138;24.768;2022-10-31T13:25:10;4.32;;;1.85;;
71150;SDS011;59071;42.138;24.768;2022-10-31T13:27:48;3.95;;;1.80;;
71150;SDS011;59071;42.138;24.768;2022-10-31T13:30:16;4.55;;;2.20;;
71150;SDS011;59071;42.138;24.768;2022-10-31T13:32:48;4.55;;;2.00;;
71150;SDS011;59071;42.138;24.768;2022-10-31T13:35:27;6.30;;;2.13;;
71150;SDS011;59071;42.138;24.768;2022-10-31T13:38:02;6.13;;;2.20;;
71150;SDS011;59071;42.138;24.768;2022-10-31T13:43:10;4.28;;;1.92;;
71150;SDS011;59071;42.138;24.768;2022-10-31T13:45:47;9.13;;;2.20;;
71150;SDS011;59071;42.138;24.768;2022-10-31T13:50:59;5.88;;;2.22;;
71150;SDS011;59071;42.138;24.768;2022-10-31T13:53:44;7.88;;;2.00;;
71150;SDS011;59071;42.138;24.768;2022-10-31T13:56:21;7.55;;;1.90;;
71150;SDS011;59071;42.138;24.768;2022-10-31T13:58:59;5.47;;;1.85;;
71150;SDS011;59071;42.138;24.768;2022-10-31T14:01:25;5.68;;;2.30;;
71150;SDS011;59071;42.138;24.768;2022-10-31T14:03:58;6.65;;;2.40;;
71150;SDS011;59071;42.138;24.768;2022-10-31T14:06:37;6.43;;;2.25;;
71150;SDS011;59071;42.138;24.768;2022-10-31T14:12:39;5.38;;;1.80;;
71150;SDS011;59071;42.138;24.768;2022-10-31T14:17:47;10.27;;;2.53;;
71150;SDS011;59071;42.138;24.768;2022-10-31T14:22:40;8.40;;;2.38;;
71150;SDS011;59071;42.138;24.768;2022-10-31T14:28:00;5.80;;;2.38;;
71150;SDS011;59071;42.138;24.768;2022-10-31T14:30:56;8.63;;;2.58;;
71150;SDS011;59071;42.138;24.768;2022-10-31T14:33:24;5.38;;;2.30;;
71150;SDS011;59071;42.138;24.768;2022-10-31T14:36:11;7.15;;;2.60;;
71150;SDS011;59071;42.138;24.768;2022-10-31T14:46:50;5.97;;;2.58;;
71150;SDS011;59071;42.138;24.768;2022-10-31T14:52:04;4.95;;;2.17;;
71150;SDS011;59071;42.138;24.768;2022-10-31T14:54:32;5.60;;;2.40;;
71150;SDS011;59071;42.138;24.768;2022-10-31T14:59:32;9.05;;;2.40;;
71150;SDS011;59071;42.138;24.768;2022-10-31T15:02:09;10.20;;;2.60;;
71150;SDS011;59071;42.138;24.768;2022-10-31T15:04:39;10.63;;;3.03;;
71150;SDS011;59071;42.138;24.768;2022-10-31T15:07:08;6.43;;;2.85;;
71150;SDS011;59071;42.138;24.768;2022-10-31T15:09:34;8.52;;;2.65;;
71150;SDS011;59071;42.138;24.768;2022-10-31T15:12:20;10.95;;;3.00;;
71150;SDS011;59071;42.138;24.768;2022-10-31T15:14:54;17.77;;;3.58;;
71150;SDS011;59071;42.138;24.768;2022-10-31T15:17:21;22.65;;;3.38;;
71150;SDS011;59071;42.138;24.768;2022-10-31T15:19:47;15.75;;;3.20;;
71150;SDS011;59071;42.138;24.768;2022-10-31T15:22:14;12.30;;;2.83;;
71150;SDS011;59071;42.138;24.768;2022-10-31T15:24:42;15.63;;;3.53;;
71150;SDS011;59071;42.138;24.768;2022-10-31T15:27:12;14.13;;;3.40;;
71150;SDS011;59071;42.138;24.768;2022-10-31T15:29:55;7.53;;;2.83;;
71150;SDS011;59071;42.138;24.768;2022-10-31T15:32:28;12.05;;;4.15;;
71150;SDS011;59071;42.138;24.768;2022-10-31T15:34:54;13.90;;;4.22;;
71150;SDS011;59071;42.138;24.768;2022-10-31T15:37:22;17.38;;;3.95;;
71150;SDS011;59071;42.138;24.768;2022-10-31T15:39:50;19.50;;;4.35;;
71150;SDS011;59071;42.138;24.768;2022-10-31T15:42:21;13.23;;;3.75;;
71150;SDS011;59071;42.138;24.768;2022-10-31T15:44:52;9.90;;;2.97;;
71150;SDS011;59071;42.138;24.768;2022-10-31T15:47:22;20.83;;;3.90;;
71150;SDS011;59071;42.138;24.768;2022-10-31T15:49:56;11.48;;;3.70;;
71150;SDS011;59071;42.138;24.768;2022-10-31T15:55:21;17.73;;;5.93;;
71150;SDS011;59071;42.138;24.768;2022-10-31T15:57:50;18.17;;;5.47;;
71150;SDS011;59071;42.138;24.768;2022-10-31T16:00:22;18.15;;;5.20;;
71150;SDS011;59071;42.138;24.768;2022-10-31T16:03:01;13.70;;;4.63;;
71150;SDS011;59071;42.138;24.768;2022-10-31T16:05:35;23.60;;;5.32;;
71150;SDS011;59071;42.138;24.768;2022-10-31T16:08:03;15.18;;;5.28;;
71150;SDS011;59071;42.138;24.768;2022-10-31T16:10:32;17.00;;;5.75;;
71150;SDS011;59071;42.138;24.768;2022-10-31T16:15:25;15.32;;;5.13;;
71150;SDS011;59071;42.138;24.768;2022-10-31T16:17:51;17.27;;;5.70;;
71150;SDS011;59071;42.138;24.768;2022-10-31T16:20:19;17.05;;;5.90;;
71150;SDS011;59071;42.138;24.768;2022-10-31T16:22:50;22.50;;;7.25;;
71150;SDS011;59071;42.138;24.768;2022-10-31T16:27:56;25.50;;;6.40;;
71150;SDS011;59071;42.138;24.768;2022-10-31T16:30:47;21.02;;;7.40;;
71150;SDS011;59071;42.138;24.768;2022-10-31T16:33:30;29.02;;;7.78;;
71150;SDS011;59071;42.138;24.768;2022-10-31T16:35:58;19.90;;;6.00;;
71150;SDS011;59071;42.138;24.768;2022-10-31T16:38:24;28.88;;;6.90;;
71150;SDS011;59071;42.138;24.768;2022-10-31T16:40:50;35.17;;;8.40;;
71150;SDS011;59071;42.138;24.768;2022-10-31T16:43:17;39.95;;;9.13;;
71150;SDS011;59071;42.138;24.768;2022-10-31T16:45:49;25.73;;;8.18;;
71150;SDS011;59071;42.138;24.768;2022-10-31T16:48:17;35.25;;;9.45;;
71150;SDS011;59071;42.138;24.768;2022-10-31T16:50:47;38.03;;;8.57;;
71150;SDS011;59071;42.138;24.768;2022-10-31T16:53:14;22.58;;;6.25;;
71150;SDS011;59071;42.138;24.768;2022-10-31T16:55:44;22.08;;;6.35;;
71150;SDS011;59071;42.138;24.768;2022-10-31T16:58:23;22.52;;;5.82;;
71150;SDS011;59071;42.138;24.768;2022-10-31T17:00:51;25.85;;;6.80;;
71150;SDS011;59071;42.138;24.768;2022-10-31T17:03:17;24.17;;;9.10;;
71150;SDS011;59071;42.138;24.768;2022-10-31T17:05:43;32.78;;;10.63;;
71150;SDS011;59071;42.138;24.768;2022-10-31T17:08:09;31.90;;;11.88;;